sensor_id;sensor_type;location;lat;lon;timestamp;pressure;altitude;pressure_sealevel;temperature;humidity
54194;BME280;40102;50.906;6.972;2023-11-19T00:02:20;100445.16;;;9.20;100.00
54194;BME280;40102;50.906;6.972;2023-11-19T00:04:46;100436.31;;;9.19;100.00
54194;BME280;40102;50.906;6.972;2023-11-19T00:07:12;100440.53;;;9.23;100.00
54194;BME280;40102;50.906;6.972;2023-11-19T00:09:39;100414.00;;;9.20;100.00
54194;BME280;40102;50.906;6.972;2023-11-19T00:12:05;100423.22;;;9.15;100.00
54194;BME280;40102;50.906;6.972;2023-11-19T00:14:31;100414.34;;;9.14;100.00
54194;BME280;40102;50.906;6.972;2023-11-19T00:16:56;100413.47;;;9.14;100.00
54194;BME280;40102;50.906;6.972;2023-11-19T00:19:22;100401.00;;;9.14;100.00
54194;BME280;40102;50.906;6.972;2023-11-19T00:21:47;100400.06;;;9.15;100.00
54194;BME280;40102;50.906;6.972;2023-11-19T00:24:13;100383.97;;;9.17;100.00
54194;BME280;40102;50.906;6.972;2023-11-19T00:26:41;100381.22;;;9.18;100.00
54194;BME280;40102;50.906;6.972;2023-11-19T00:29:07;100381.22;;;9.18;100.00
54194;BME280;40102;50.906;6.972;2023-11-19T00:31:32;100374.31;;;9.14;100.00
54194;BME280;40102;50.906;6.972;2023-11-19T00:33:58;100383.19;;;9.15;100.00
54194;BME280;40102;50.906;6.972;2023-11-19T00:36:23;100377.94;;;9.13;100.00
54194;BME280;40102;50.906;6.972;2023-11-19T00:38:50;100374.94;;;9.19;100.00
54194;BME280;40102;50.906;6.972;2023-11-19T00:41:15;100370.38;;;9.21;100.00
54194;BME280;40102;50.906;6.972;2023-11-19T00:43:42;100370.97;;;9.26;100.00
54194;BME280;40102;50.906;6.972;2023-11-19T00:46:07;100380.53;;;9.30;100.00
54194;BME280;40102;50.906;6.972;2023-11-19T00:48:33;100374.25;;;9.31;100.00
54194;BME280;40102;50.906;6.972;2023-11-19T00:50:59;100375.63;;;9.38;100.00
54194;BME280;40102;50.906;6.972;2023-11-19T00:53:27;100372.88;;;9.40;100.00
54194;BME280;40102;50.906;6.972;2023-11-19T00:55:52;100359.53;;;9.40;100.00
54194;BME280;40102;50.906;6.972;2023-11-19T00:58:18;100375.63;;;9.38;100.00
54194;BME280;40102;50.906;6.972;2023-11-19T01:00:43;100373.81;;;9.39;100.00
54194;BME280;40102;50.906;6.972;2023-11-19T01:03:10;100374.75;;;9.38;100.00
54194;BME280;40102;50.906;6.972;2023-11-19T01:05:36;100366.75;;;9.38;100.00
54194;BME280;40102;50.906;6.972;2023-11-19T01:08:02;100374.00;;;9.36;100.00
54194;BME280;40102;50.906;6.972;2023-11-19T01:10:30;100368.56;;;9.37;100.00
54194;BME280;40102;50.906;6.972;2023-11-19T01:12:55;100372.19;;;9.36;100.00
54194;BME280;40102;50.906;6.972;2023-11-19T01:15:21;100380.09;;;9.38;100.00
54194;BME280;40102;50.906;6.972;2023-11-19T01:17:48;100375.63;;;9.38;100.00
54194;BME280;40102;50.906;6.972;2023-11-19T01:20:13;100377.69;;;9.33;100.00
54194;BME280;40102;50.906;6.972;2023-11-19T01:22:39;100369.78;;;9.32;100.00
54194;BME280;40102;50.906;6.972;2023-11-19T01:25:05;100370.63;;;9.32;100.00
54194;BME280;40102;50.906;6.972;2023-11-19T01:27:31;100369.78;;;9.32;100.00
54194;BME280;40102;50.906;6.972;2023-11-19T01:29:56;100368.91;;;9.31;100.00
54194;BME280;40102;50.906;6.972;2023-11-19T01:32:22;100372.44;;;9.32;100.00
54194;BME280;40102;50.906;6.972;2023-11-19T01:34:49;100375.28;;;9.29;100.00
54194;BME280;40102;50.906;6.972;2023-11-19T01:37:16;100369.84;;;9.30;100.00
54194;BME280;40102;50.906;6.972;2023-11-19T01:39:44;100365.28;;;9.32;100.00
54194;BME280;40102;50.906;6.972;2023-11-19T01:42:10;100376.81;;;9.33;100.00
54194;BME280;40102;50.906;6.972;2023-11-19T01:44:37;100379.50;;;9.33;100.00
54194;BME280;40102;50.906;6.972;2023-11-19T01:47:02;100368.91;;;9.31;100.00
54194;BME280;40102;50.906;6.972;2023-11-19T01:49:30;100365.13;;;9.35;100.00
54194;BME280;40102;50.906;6.972;2023-11-19T01:51:57;100366.50;;;9.43;100.00
54194;BME280;40102;50.906;6.972;2023-11-19T01:54:24;100357.09;;;9.51;100.00
54194;BME280;40102;50.906;6.972;2023-11-19T01:56:53;100358.75;;;9.54;100.00
54194;BME280;40102;50.906;6.972;2023-11-19T01:59:21;100350.66;;;9.55;100.00
54194;BME280;40102;50.906;6.972;2023-11-19T02:01:52;100356.84;;;9.56;100.00
54194;BME280;40102;50.906;6.972;2023-11-19T02:04:19;100357.78;;;9.55;100.00
54194;BME280;40102;50.906;6.972;2023-11-19T02:06:49;100372.59;;;9.60;100.00
54194;BME280;40102;50.906;6.972;2023-11-19T02:09:17;100365.59;;;9.73;100.00
54194;BME280;40102;50.906;6.972;2023-11-19T02:11:45;100352.06;;;9.77;100.00
54194;BME280;40102;50.906;6.972;2023-11-19T02:14:13;100356.97;;;9.84;100.00
54194;BME280;40102;50.906;6.972;2023-11-19T02:16:38;100332.16;;;9.82;100.00
54194;BME280;40102;50.906;6.972;2023-11-19T02:19:03;100344.22;;;9.89;100.00
54194;BME280;40102;50.906;6.972;2023-11-19T02:21:31;100324.47;;;9.92;100.00
54194;BME280;40102;50.906;6.972;2023-11-19T02:23:57;100326.00;;;9.96;100.00
54194;BME280;40102;50.906;6.972;2023-11-19T02:26:30;100320.13;;;10.05;100.00
54194;BME280;40102;50.906;6.972;2023-11-19T02:28:58;100306.06;;;10.01;100.00
54194;BME280;40102;50.906;6.972;2023-11-19T02:31:23;100307.13;;;9.99;100.00
54194;BME280;40102;50.906;6.972;2023-11-19T02:33:49;100316.75;;;10.01;100.00
54194;BME280;40102;50.906;6.972;2023-11-19T02:36:15;100316.59;;;10.04;100.00
54194;BME280;40102;50.906;6.972;2023-11-19T02:38:40;100320.78;;;10.09;100.00
54194;BME280;40102;50.906;6.972;2023-11-19T02:41:06;100316.84;;;10.00;100.00
54194;BME280;40102;50.906;6.972;2023-11-19T02:43:33;100317.41;;;9.91;100.00
54194;BME280;40102;50.906;6.972;2023-11-19T02:46:02;100312.38;;;10.00;100.00
54194;BME280;40102;50.906;6.972;2023-11-19T02:48:28;100312.97;;;10.05;100.00
54194;BME280;40102;50.906;6.972;2023-11-19T02:50:54;100295.66;;;9.97;100.00
54194;BME280;40102;50.906;6.972;2023-11-19T02:53:19;100298.44;;;9.95;100.00
54194;BME280;40102;50.906;6.972;2023-11-19T02:55:47;100299.78;;;10.02;100.00
54194;BME280;40102;50.906;6.972;2023-11-19T02:58:15;100294.66;;;10.14;100.00
54194;BME280;40102;50.906;6.972;2023-11-19T03:00:49;100285.88;;;10.12;100.00
54194;BME280;40102;50.906;6.972;2023-11-19T03:03:38;100294.66;;;10.14;100.00
54194;BME280;40102;50.906;6.972;2023-11-19T03:06:07;100292.75;;;10.16;100.00
54194;BME280;40102;50.906;6.972;2023-11-19T03:08:35;100294.22;;;10.21;100.00
54194;BME280;40102;50.906;6.972;2023-11-19T03:11:01;100296.97;;;10.20;100.00
54194;BME280;40102;50.906;6.972;2023-11-19T03:13:26;100300.41;;;10.22;100.00
54194;BME280;40102;50.906;6.972;2023-11-19T03:15:52;100292.41;;;10.22;100.00
54194;BME280;40102;50.906;6.972;2023-11-19T03:18:19;100298.94;;;10.16;100.00
54194;BME280;40102;50.906;6.972;2023-11-19T03:20:46;100300.44;;;10.36;100.00
54194;BME280;40102;50.906;6.972;2023-11-19T03:23:17;100302.91;;;10.25;100.00
54194;BME280;40102;50.906;6.972;2023-11-19T03:25:43;100301.22;;;10.38;100.00
54194;BME280;40102;50.906;6.972;2023-11-19T03:28:12;100298.31;;;10.41;100.00
54194;BME280;40102;50.906;6.972;2023-11-19T03:30:37;100295.63;;;10.41;100.00
54194;BME280;40102;50.906;6.972;2023-11-19T03:33:03;100286.56;;;10.44;100.00
54194;BME280;40102;50.906;6.972;2023-11-19T03:35:28;100296.97;;;10.48;100.00
54194;BME280;40102;50.906;6.972;2023-11-19T03:37:55;100288.38;;;10.43;100.00
54194;BME280;40102;50.906;6.972;2023-11-19T03:40:21;100290.00;;;10.46;100.00
54194;BME280;40102;50.906;6.972;2023-11-19T03:42:46;100291.06;;;10.43;100.00
54194;BME280;40102;50.906;6.972;2023-11-19T03:45:12;100293.81;;;10.42;100.00
54194;BME280;40102;50.906;6.972;2023-11-19T03:47:37;100302.13;;;10.51;100.00
54194;BME280;40102;50.906;6.972;2023-11-19T03:50:04;100297.75;;;10.50;100.00
54194;BME280;40102;50.906;6.972;2023-11-19T03:52:30;100309.97;;;10.54;100.00
54194;BME280;40102;50.906;6.972;2023-11-19T03:54:55;100304.81;;;10.51;100.00
54194;BME280;40102;50.906;6.972;2023-11-19T03:57:22;100304.03;;;10.49;100.00
54194;BME280;40102;50.906;6.972;2023-11-19T03:59:48;100298.59;;;10.51;100.00
54194;BME280;40102;50.906;6.972;2023-11-19T04:02:13;100299.66;;;10.48;100.00
54194;BME280;40102;50.906;6.972;2023-11-19T04:04:42;100302.03;;;10.53;100.00
54194;BME280;40102;50.906;6.972;2023-11-19T04:07:07;100300.41;;;10.50;100.00
54194;BME280;40102;50.906;6.972;2023-11-19T04:09:33;100295.47;;;10.58;100.00
54194;BME280;40102;50.906;6.972;2023-11-19T04:11:59;100298.88;;;10.60;100.00
54194;BME280;40102;50.906;6.972;2023-11-19T04:14:25;100304.53;;;10.56;100.00
54194;BME280;40102;50.906;6.972;2023-11-19T04:16:51;100306.34;;;10.55;100.00
54194;BME280;40102;50.906;6.972;2023-11-19T04:19:17;100299.28;;;10.54;100.00
54194;BME280;40102;50.906;6.972;2023-11-19T04:21:43;100293.72;;;10.57;100.00
54194;BME280;40102;50.906;6.972;2023-11-19T04:24:09;100302.53;;;10.59;100.00
54194;BME280;40102;50.906;6.972;2023-11-19T04:26:43;100301.66;;;10.59;100.00
54194;BME280;40102;50.906;6.972;2023-11-19T04:29:11;100304.06;;;10.63;100.00
54194;BME280;40102;50.906;6.972;2023-11-19T04:31:39;100300.03;;;10.56;100.00
54194;BME280;40102;50.906;6.972;2023-11-19T04:34:05;100297.38;;;10.56;100.00
54194;BME280;40102;50.906;6.972;2023-11-19T04:36:34;100300.69;;;10.46;100.00
54194;BME280;40102;50.906;6.972;2023-11-19T04:39:00;100301.19;;;10.52;100.00
54194;BME280;40102;50.906;6.972;2023-11-19T04:41:26;100305.47;;;10.55;100.00
54194;BME280;40102;50.906;6.972;2023-11-19T04:43:54;100307.97;;;10.58;100.00
54194;BME280;40102;50.906;6.972;2023-11-19T04:46:20;100310.94;;;10.67;100.00
54194;BME280;40102;50.906;6.972;2023-11-19T04:48:45;100313.13;;;10.61;100.00
54194;BME280;40102;50.906;6.972;2023-11-19T04:51:11;100320.66;;;10.68;100.00
54194;BME280;40102;50.906;6.972;2023-11-19T04:53:36;100322.00;;;10.61;100.00
54194;BME280;40102;50.906;6.972;2023-11-19T04:56:08;100321.72;;;10.66;100.00
54194;BME280;40102;50.906;6.972;2023-11-19T04:58:34;100319.91;;;10.52;100.00
54194;BME280;40102;50.906;6.972;2023-11-19T05:01:01;100323.63;;;10.50;100.00
54194;BME280;40102;50.906;6.972;2023-11-19T05:03:26;100321.53;;;10.55;100.00
54194;BME280;40102;50.906;6.972;2023-11-19T05:05:52;100324.38;;;10.52;100.00
54194;BME280;40102;50.906;6.972;2023-11-19T05:08:17;100322.97;;;10.60;100.00
54194;BME280;40102;50.906;6.972;2023-11-19T05:10:42;100330.13;;;10.60;100.00
54194;BME280;40102;50.906;6.972;2023-11-19T05:13:08;100333.56;;;10.62;100.00
54194;BME280;40102;50.906;6.972;2023-11-19T05:15:33;100338.81;;;10.63;100.00
54194;BME280;40102;50.906;6.972;2023-11-19T05:17:59;100329.94;;;10.63;100.00
54194;BME280;40102;50.906;6.972;2023-11-19T05:20:24;100326.31;;;10.64;100.00
54194;BME280;40102;50.906;6.972;2023-11-19T05:22:50;100332.91;;;10.58;100.00
54194;BME280;40102;50.906;6.972;2023-11-19T05:25:17;100327.94;;;10.52;100.00
54194;BME280;40102;50.906;6.972;2023-11-19T05:27:42;100323.25;;;10.56;100.00
54194;BME280;40102;50.906;6.972;2023-11-19T05:30:08;100324.47;;;10.50;100.00
54194;BME280;40102;50.906;6.972;2023-11-19T05:32:34;100336.81;;;10.53;100.00
54194;BME280;40102;50.906;6.972;2023-11-19T05:34:59;100322.00;;;10.47;100.00
54194;BME280;40102;50.906;6.972;2023-11-19T05:37:24;100328.31;;;10.46;100.00
54194;BME280;40102;50.906;6.972;2023-11-19T05:39:50;100324.50;;;10.36;100.00
54194;BME280;40102;50.906;6.972;2023-11-19T05:42:15;100329.53;;;10.41;100.00
54194;BME280;40102;50.906;6.972;2023-11-19T05:44:41;100319.84;;;10.40;100.00
54194;BME280;40102;50.906;6.972;2023-11-19T05:47:06;100319.16;;;10.36;100.00
54194;BME280;40102;50.906;6.972;2023-11-19T05:49:32;100330.31;;;10.43;100.00
54194;BME280;40102;50.906;6.972;2023-11-19T05:51:58;100342.91;;;10.41;100.00
54194;BME280;40102;50.906;6.972;2023-11-19T05:54:23;100323.56;;;10.37;100.00
54194;BME280;40102;50.906;6.972;2023-11-19T05:56:48;100327.00;;;10.39;100.00
54194;BME280;40102;50.906;6.972;2023-11-19T05:59:14;100331.25;;;10.42;100.00
54194;BME280;40102;50.906;6.972;2023-11-19T06:01:45;100339.28;;;10.42;100.00
54194;BME280;40102;50.906;6.972;2023-11-19T06:04:11;100333.28;;;10.38;100.00
54194;BME280;40102;50.906;6.972;2023-11-19T06:06:37;100361.53;;;10.42;100.00
54194;BME280;40102;50.906;6.972;2023-11-19T06:09:03;100345.47;;;10.42;100.00
54194;BME280;40102;50.906;6.972;2023-11-19T06:11:29;100352.00;;;10.38;100.00
54194;BME280;40102;50.906;6.972;2023-11-19T06:13:54;100346.06;;;10.33;100.00
54194;BME280;40102;50.906;6.972;2023-11-19T06:16:20;100356.78;;;10.33;100.00
54194;BME280;40102;50.906;6.972;2023-11-19T06:18:45;100343.69;;;10.28;100.00
54194;BME280;40102;50.906;6.972;2023-11-19T06:21:12;100353.31;;;10.31;100.00
54194;BME280;40102;50.906;6.972;2023-11-19T06:23:37;100348.75;;;10.33;100.00
54194;BME280;40102;50.906;6.972;2023-11-19T06:26:03;100355.13;;;10.30;100.00
54194;BME280;40102;50.906;6.972;2023-11-19T06:28:30;100364.03;;;10.31;100.00
54194;BME280;40102;50.906;6.972;2023-11-19T06:30:56;100362.78;;;10.36;100.00
54194;BME280;40102;50.906;6.972;2023-11-19T06:33:23;100370.13;;;10.33;100.00
54194;BME280;40102;50.906;6.972;2023-11-19T06:35:48;100368.41;;;10.32;100.00
54194;BME280;40102;50.906;6.972;2023-11-19T06:38:14;100371.19;;;10.30;100.00
54194;BME280;40102;50.906;6.972;2023-11-19T06:40:40;100370.03;;;10.34;100.00
54194;BME280;40102;50.906;6.972;2023-11-19T06:43:09;100358.50;;;10.34;100.00
54194;BME280;40102;50.906;6.972;2023-11-19T06:45:34;100362.59;;;10.40;100.00
54194;BME280;40102;50.906;6.972;2023-11-19T06:48:03;100369.84;;;10.37;100.00
54194;BME280;40102;50.906;6.972;2023-11-19T06:50:30;100366.50;;;10.34;100.00
54194;BME280;40102;50.906;6.972;2023-11-19T06:52:56;100384.28;;;10.35;100.00
54194;BME280;40102;50.906;6.972;2023-11-19T06:55:21;100378.53;;;10.41;100.00
54194;BME280;40102;50.906;6.972;2023-11-19T06:57:47;100376.06;;;10.38;100.00
54194;BME280;40102;50.906;6.972;2023-11-19T07:00:12;100368.81;;;10.40;100.00
54194;BME280;40102;50.906;6.972;2023-11-19T07:02:41;100371.09;;;10.46;100.00
54194;BME280;40102;50.906;6.972;2023-11-19T07:05:13;100379.19;;;10.45;100.00
54194;BME280;40102;50.906;6.972;2023-11-19T07:07:44;100376.44;;;10.60;100.00
54194;BME280;40102;50.906;6.972;2023-11-19T07:10:18;100374.63;;;10.61;100.00
54194;BME280;40102;50.906;6.972;2023-11-19T07:12:43;100365.84;;;10.59;100.00
54194;BME280;40102;50.906;6.972;2023-11-19T07:15:10;100372.53;;;10.52;100.00
54194;BME280;40102;50.906;6.972;2023-11-19T07:17:35;100372.16;;;10.58;100.00
54194;BME280;40102;50.906;6.972;2023-11-19T07:20:01;100365.38;;;10.52;100.00
54194;BME280;40102;50.906;6.972;2023-11-19T07:22:27;100370.31;;;10.44;100.00
54194;BME280;40102;50.906;6.972;2023-11-19T07:24:55;100377.09;;;10.50;100.00
54194;BME280;40102;50.906;6.972;2023-11-19T07:27:23;100371.19;;;10.45;100.00
54194;BME280;40102;50.906;6.972;2023-11-19T07:29:49;100373.09;;;10.43;100.00
54194;BME280;40102;50.906;6.972;2023-11-19T07:32:15;100379.38;;;10.42;100.00
54194;BME280;40102;50.906;6.972;2023-11-19T07:34:40;100393.63;;;10.42;100.00
54194;BME280;40102;50.906;6.972;2023-11-19T07:37:25;100374.81;;;10.29;100.00
54194;BME280;40102;50.906;6.972;2023-11-19T07:39:58;100414.25;;;10.40;100.00
54194;BME280;40102;50.906;6.972;2023-11-19T07:42:23;100417.59;;;10.44;100.00
54194;BME280;40102;50.906;6.972;2023-11-19T07:44:49;100407.28;;;10.37;100.00
54194;BME280;40102;50.906;6.972;2023-11-19T07:47:14;100419.97;;;10.48;100.00
54194;BME280;40102;50.906;6.972;2023-11-19T07:49:39;100422.47;;;10.51;100.00
54194;BME280;40102;50.906;6.972;2023-11-19T07:52:05;100429.53;;;10.52;100.00
54194;BME280;40102;50.906;6.972;2023-11-19T07:54:30;100429.81;;;10.48;100.00
54194;BME280;40102;50.906;6.972;2023-11-19T07:56:56;100421.59;;;10.51;100.00
54194;BME280;40102;50.906;6.972;2023-11-19T07:59:21;100436.13;;;10.47;100.00
54194;BME280;40102;50.906;6.972;2023-11-19T08:01:46;100421.59;;;10.51;100.00
54194;BME280;40102;50.906;6.972;2023-11-19T08:04:12;100430.13;;;10.57;100.00
54194;BME280;40102;50.906;6.972;2023-11-19T08:06:37;100432.97;;;10.54;100.00
54194;BME280;40102;50.906;6.972;2023-11-19T08:09:03;100415.72;;;10.60;100.00
54194;BME280;40102;50.906;6.972;2023-11-19T08:11:28;100423.16;;;10.55;100.00
54194;BME280;40102;50.906;6.972;2023-11-19T08:13:53;100433.84;;;10.55;100.00
54194;BME280;40102;50.906;6.972;2023-11-19T08:16:27;100411.88;;;10.50;100.00
54194;BME280;40102;50.906;6.972;2023-11-19T08:18:53;100428.41;;;10.56;100.00
54194;BME280;40102;50.906;6.972;2023-11-19T08:21:19;100440.91;;;10.56;100.00
54194;BME280;40102;50.906;6.972;2023-11-19T08:23:45;100436.97;;;10.47;100.00
54194;BME280;40102;50.906;6.972;2023-11-19T08:26:10;100453.97;;;10.46;100.00
54194;BME280;40102;50.906;6.972;2023-11-19T08:28:37;100463.63;;;10.49;100.00
54194;BME280;40102;50.906;6.972;2023-11-19T08:31:05;100460.88;;;10.50;100.00
54194;BME280;40102;50.906;6.972;2023-11-19T08:33:31;100467.94;;;10.51;100.00
54194;BME280;40102;50.906;6.972;2023-11-19T08:35:57;100466.03;;;10.53;100.00
54194;BME280;40102;50.906;6.972;2023-11-19T08:38:23;100464.81;;;10.59;100.00
54194;BME280;40102;50.906;6.972;2023-11-19T08:40:49;100473.81;;;10.72;100.00
54194;BME280;40102;50.906;6.972;2023-11-19T08:43:14;100474.59;;;10.74;100.00
54194;BME280;40102;50.906;6.972;2023-11-19T08:45:39;100470.97;;;10.75;100.00
54194;BME280;40102;50.906;6.972;2023-11-19T08:48:05;100471.13;;;10.72;100.00
54194;BME280;40102;50.906;6.972;2023-11-19T08:50:30;100486.81;;;10.78;100.00
54194;BME280;40102;50.906;6.972;2023-11-19T08:52:55;100468.19;;;10.77;100.00
54194;BME280;40102;50.906;6.972;2023-11-19T08:55:21;100476.41;;;10.74;100.00
54194;BME280;40102;50.906;6.972;2023-11-19T08:57:46;100472.59;;;10.78;100.00
54194;BME280;40102;50.906;6.972;2023-11-19T09:00:12;100479.28;;;10.85;100.00
54194;BME280;40102;50.906;6.972;2023-11-19T09:02:39;100466.78;;;10.85;100.00
54194;BME280;40102;50.906;6.972;2023-11-19T09:05:05;100470.50;;;10.83;100.00
54194;BME280;40102;50.906;6.972;2023-11-19T09:07:32;100474.88;;;10.84;100.00
54194;BME280;40102;50.906;6.972;2023-11-19T09:09:58;100469.44;;;10.85;100.00
54194;BME280;40102;50.906;6.972;2023-11-19T09:12:23;100492.28;;;10.91;100.00
54194;BME280;40102;50.906;6.972;2023-11-19T09:14:49;100485.03;;;10.93;100.00
54194;BME280;40102;50.906;6.972;2023-11-19T09:17:14;100495.94;;;11.04;100.00
54194;BME280;40102;50.906;6.972;2023-11-19T09:19:40;100491.84;;;11.13;100.00
54194;BME280;40102;50.906;6.972;2023-11-19T09:22:06;100494.72;;;11.10;99.73
54194;BME280;40102;50.906;6.972;2023-11-19T09:24:31;100473.19;;;11.11;98.27
54194;BME280;40102;50.906;6.972;2023-11-19T09:26:56;100481.22;;;11.11;98.62
54194;BME280;40102;50.906;6.972;2023-11-19T09:29:22;100471.59;;;11.23;96.91
54194;BME280;40102;50.906;6.972;2023-11-19T09:31:48;100486.59;;;11.25;96.66
54194;BME280;40102;50.906;6.972;2023-11-19T09:34:13;100490.59;;;11.18;98.54
54194;BME280;40102;50.906;6.972;2023-11-19T09:36:38;100488.31;;;11.12;99.27
54194;BME280;40102;50.906;6.972;2023-11-19T09:39:08;100493.66;;;11.12;99.05
54194;BME280;40102;50.906;6.972;2023-11-19T09:41:34;100488.78;;;11.19;98.11
54194;BME280;40102;50.906;6.972;2023-11-19T09:43:59;100486.88;;;11.21;97.63
54194;BME280;40102;50.906;6.972;2023-11-19T09:46:26;100481.72;;;11.18;98.14
54194;BME280;40102;50.906;6.972;2023-11-19T09:48:55;100484.78;;;11.12;99.35
54194;BME280;40102;50.906;6.972;2023-11-19T09:51:23;100495.19;;;11.16;98.89
54194;BME280;40102;50.906;6.972;2023-11-19T09:53:48;100489.84;;;11.16;98.86
54194;BME280;40102;50.906;6.972;2023-11-19T09:56:14;100504.00;;;11.18;98.37
54194;BME280;40102;50.906;6.972;2023-11-19T09:58:42;100488.59;;;11.22;97.34
54194;BME280;40102;50.906;6.972;2023-11-19T10:01:07;100491.66;;;11.16;98.19
54194;BME280;40102;50.906;6.972;2023-11-19T10:03:35;100499.88;;;11.27;96.10
54194;BME280;40102;50.906;6.972;2023-11-19T10:06:03;100489.19;;;11.27;96.49
54194;BME280;40102;50.906;6.972;2023-11-19T10:08:29;100492.72;;;11.27;96.48
54194;BME280;40102;50.906;6.972;2023-11-19T10:10:54;100494.06;;;11.34;95.77
54194;BME280;40102;50.906;6.972;2023-11-19T10:13:26;100470.91;;;11.33;96.08
54194;BME280;40102;50.906;6.972;2023-11-19T10:15:51;100471.88;;;11.32;95.65
54194;BME280;40102;50.906;6.972;2023-11-19T10:18:17;100474.34;;;11.35;95.07
54194;BME280;40102;50.906;6.972;2023-11-19T10:20:43;100481.63;;;11.33;96.73
54194;BME280;40102;50.906;6.972;2023-11-19T10:23:10;100481.91;;;11.29;96.91
54194;BME280;40102;50.906;6.972;2023-11-19T10:25:36;100485.63;;;11.26;97.42
54194;BME280;40102;50.906;6.972;2023-11-19T10:28:02;100473.00;;;11.28;97.34
54194;BME280;40102;50.906;6.972;2023-11-19T10:30:29;100477.41;;;11.29;96.77
54194;BME280;40102;50.906;6.972;2023-11-19T10:33:04;100475.97;;;11.24;98.12
54194;BME280;40102;50.906;6.972;2023-11-19T10:35:37;100475.41;;;11.19;99.42
54194;BME280;40102;50.906;6.972;2023-11-19T10:38:15;100480.47;;;11.52;93.41
54194;BME280;40102;50.906;6.972;2023-11-19T10:40:41;100477.78;;;11.52;93.87
54194;BME280;40102;50.906;6.972;2023-11-19T10:43:07;100472.13;;;11.71;92.09
54194;BME280;40102;50.906;6.972;2023-11-19T10:45:33;100485.13;;;11.77;91.83
54194;BME280;40102;50.906;6.972;2023-11-19T10:47:59;100491.94;;;11.82;91.59
54194;BME280;40102;50.906;6.972;2023-11-19T10:50:26;100470.41;;;11.84;90.75
54194;BME280;40102;50.906;6.972;2023-11-19T10:52:56;100468.09;;;11.92;89.70
54194;BME280;40102;50.906;6.972;2023-11-19T10:55:27;100463.03;;;11.87;89.83
54194;BME280;40102;50.906;6.972;2023-11-19T10:57:58;100469.63;;;11.82;90.14
54194;BME280;40102;50.906;6.972;2023-11-19T11:00:24;100460.94;;;11.78;90.01
54194;BME280;40102;50.906;6.972;2023-11-19T11:02:54;100460.16;;;11.76;89.86
54194;BME280;40102;50.906;6.972;2023-11-19T11:05:22;100468.78;;;11.81;89.10
54194;BME280;40102;50.906;6.972;2023-11-19T11:07:48;100460.84;;;11.80;88.88
54194;BME280;40102;50.906;6.972;2023-11-19T11:10:16;100459.22;;;11.77;89.58
54194;BME280;40102;50.906;6.972;2023-11-19T11:12:43;100457.00;;;11.84;88.83
54194;BME280;40102;50.906;6.972;2023-11-19T11:15:10;100459.22;;;11.77;90.49
54194;BME280;40102;50.906;6.972;2023-11-19T11:17:39;100448.50;;;11.77;89.68
54194;BME280;40102;50.906;6.972;2023-11-19T11:20:05;100454.41;;;11.82;89.73
54194;BME280;40102;50.906;6.972;2023-11-19T11:22:42;100445.88;;;11.76;90.46
54194;BME280;40102;50.906;6.972;2023-11-19T11:28:16;100453.56;;;11.82;90.00
54194;BME280;40102;50.906;6.972;2023-11-19T11:33:56;100435.91;;;11.92;86.62
54194;BME280;40102;50.906;6.972;2023-11-19T11:36:25;100445.31;;;11.85;88.16
54194;BME280;40102;50.906;6.972;2023-11-19T11:38:51;100453.91;;;11.90;87.95
54194;BME280;40102;50.906;6.972;2023-11-19T11:41:22;100451.81;;;11.95;87.90
54194;BME280;40102;50.906;6.972;2023-11-19T11:43:49;100444.22;;;12.02;87.25
54194;BME280;40102;50.906;6.972;2023-11-19T11:49:06;100439.25;;;11.95;88.17
54194;BME280;40102;50.906;6.972;2023-11-19T11:54:10;100434.31;;;11.89;88.98
54194;BME280;40102;50.906;6.972;2023-11-19T11:56:39;100429.84;;;12.03;86.45
54194;BME280;40102;50.906;6.972;2023-11-19T11:59:09;100434.59;;;12.12;87.06
54194;BME280;40102;50.906;6.972;2023-11-19T12:01:57;100427.81;;;12.33;86.23
54194;BME280;40102;50.906;6.972;2023-11-19T12:04:26;100449.59;;;12.41;86.71
54194;BME280;40102;50.906;6.972;2023-11-19T12:07:17;100421.50;;;12.47;85.33
54194;BME280;40102;50.906;6.972;2023-11-19T12:09:48;100425.50;;;12.67;84.27
54194;BME280;40102;50.906;6.972;2023-11-19T12:12:25;100426.38;;;12.67;85.40
54194;BME280;40102;50.906;6.972;2023-11-19T12:20:02;100421.53;;;12.72;84.80
54194;BME280;40102;50.906;6.972;2023-11-19T12:22:27;100414.03;;;12.77;85.13
54194;BME280;40102;50.906;6.972;2023-11-19T12:24:54;100415.97;;;12.75;85.26
54194;BME280;40102;50.906;6.972;2023-11-19T12:27:20;100414.88;;;12.78;84.93
54194;BME280;40102;50.906;6.972;2023-11-19T12:29:47;100407.16;;;12.86;84.20
54194;BME280;40102;50.906;6.972;2023-11-19T12:32:13;100403.94;;;12.93;82.84
54194;BME280;40102;50.906;6.972;2023-11-19T12:34:38;100400.81;;;12.87;85.98
54194;BME280;40102;50.906;6.972;2023-11-19T12:37:04;100398.91;;;12.89;85.19
54194;BME280;40102;50.906;6.972;2023-11-19T12:39:30;100397.28;;;12.86;84.76
54194;BME280;40102;50.906;6.972;2023-11-19T12:41:56;100408.78;;;12.76;85.01
54194;BME280;40102;50.906;6.972;2023-11-19T12:44:24;100382.47;;;12.68;86.11
54194;BME280;40102;50.906;6.972;2023-11-19T12:47:03;100389.53;;;12.56;83.96
54194;BME280;40102;50.906;6.972;2023-11-19T12:49:29;100397.38;;;12.59;83.83
54194;BME280;40102;50.906;6.972;2023-11-19T12:51:55;100398.66;;;12.67;83.40
54194;BME280;40102;50.906;6.972;2023-11-19T12:54:20;100381.94;;;12.63;85.66
54194;BME280;40102;50.906;6.972;2023-11-19T12:56:52;100391.25;;;12.57;85.25
54194;BME280;40102;50.906;6.972;2023-11-19T12:59:18;100389.44;;;12.58;85.76
54194;BME280;40102;50.906;6.972;2023-11-19T13:01:55;100398.66;;;12.54;85.95